sensor_id;sensor_type;location;lat;lon;timestamp;P1;durP1;ratioP1;P2;durP2;ratioP2
73456;SDS011;61691;53.072;6.582;2024-01-15T00:02:03;22.90;;;2.50;;
73456;SDS011;61691;53.072;6.582;2024-01-15T00:04:29;19.02;;;2.95;;
73456;SDS011;61691;53.072;6.582;2024-01-15T00:06:57;16.20;;;2.97;;
73456;SDS011;61691;53.072;6.582;2024-01-15T00:09:23;18.77;;;2.67;;
73456;SDS011;61691;53.072;6.582;2024-01-15T00:11:50;15.07;;;2.63;;
73456;SDS011;61691;53.072;6.582;2024-01-15T00:14:17;19.25;;;2.42;;
73456;SDS011;61691;53.072;6.582;2024-01-15T00:16:46;15.77;;;2.45;;
73456;SDS011;61691;53.072;6.582;2024-01-15T00:19:15;15.32;;;2.40;;
73456;SDS011;61691;53.072;6.582;2024-01-15T00:21:43;19.73;;;2.75;;
73456;SDS011;61691;53.072;6.582;2024-01-15T00:24:10;19.75;;;2.38;;
73456;SDS011;61691;53.072;6.582;2024-01-15T00:26:37;17.60;;;2.67;;
73456;SDS011;61691;53.072;6.582;2024-01-15T00:29:04;13.93;;;2.63;;
73456;SDS011;61691;53.072;6.582;2024-01-15T00:31:30;20.95;;;4.50;;
73456;SDS011;61691;53.072;6.582;2024-01-15T00:33:57;21.98;;;2.40;;
73456;SDS011;61691;53.072;6.582;2024-01-15T00:36:24;18.13;;;2.13;;
73456;SDS011;61691;53.072;6.582;2024-01-15T00:38:52;15.85;;;2.70;;
73456;SDS011;61691;53.072;6.582;2024-01-15T00:41:20;17.17;;;2.35;;
73456;SDS011;61691;53.072;6.582;2024-01-15T00:43:47;21.25;;;2.33;;
73456;SDS011;61691;53.072;6.582;2024-01-15T00:46:15;12.93;;;2.13;;
73456;SDS011;61691;53.072;6.582;2024-01-15T00:48:42;16.27;;;2.30;;
73456;SDS011;61691;53.072;6.582;2024-01-15T00:51:09;18.73;;;2.40;;
73456;SDS011;61691;53.072;6.582;2024-01-15T00:53:36;17.88;;;2.30;;
73456;SDS011;61691;53.072;6.582;2024-01-15T00:56:03;19.52;;;2.40;;
73456;SDS011;61691;53.072;6.582;2024-01-15T00:58:29;20.73;;;2.72;;
73456;SDS011;61691;53.072;6.582;2024-01-15T01:00:56;14.95;;;1.80;;
73456;SDS011;61691;53.072;6.582;2024-01-15T01:03:23;15.25;;;2.20;;
73456;SDS011;61691;53.072;6.582;2024-01-15T01:05:50;11.35;;;1.95;;
73456;SDS011;61691;53.072;6.582;2024-01-15T01:08:17;17.60;;;2.25;;
73456;SDS011;61691;53.072;6.582;2024-01-15T01:10:44;11.95;;;1.88;;
73456;SDS011;61691;53.072;6.582;2024-01-15T01:13:10;14.02;;;2.50;;
73456;SDS011;61691;53.072;6.582;2024-01-15T01:15:37;13.13;;;1.83;;
73456;SDS011;61691;53.072;6.582;2024-01-15T01:18:05;16.17;;;2.05;;
73456;SDS011;61691;53.072;6.582;2024-01-15T01:20:32;15.80;;;2.67;;
73456;SDS011;61691;53.072;6.582;2024-01-15T01:22:59;15.85;;;2.13;;
73456;SDS011;61691;53.072;6.582;2024-01-15T01:25:26;20.05;;;3.00;;
73456;SDS011;61691;53.072;6.582;2024-01-15T01:27:53;18.20;;;3.60;;
73456;SDS011;61691;53.072;6.582;2024-01-15T01:30:20;17.70;;;2.70;;
73456;SDS011;61691;53.072;6.582;2024-01-15T01:32:47;14.85;;;3.00;;
73456;SDS011;61691;53.072;6.582;2024-01-15T01:35:13;15.90;;;2.20;;
73456;SDS011;61691;53.072;6.582;2024-01-15T01:37:40;16.35;;;3.58;;
73456;SDS011;61691;53.072;6.582;2024-01-15T01:40:07;15.35;;;2.35;;
73456;SDS011;61691;53.072;6.582;2024-01-15T01:42:34;16.48;;;2.10;;
73456;SDS011;61691;53.072;6.582;2024-01-15T01:45:01;14.25;;;2.63;;
73456;SDS011;61691;53.072;6.582;2024-01-15T01:47:28;18.52;;;2.38;;
73456;SDS011;61691;53.072;6.582;2024-01-15T01:49:55;12.85;;;1.80;;
73456;SDS011;61691;53.072;6.582;2024-01-15T01:52:22;12.63;;;2.17;;
73456;SDS011;61691;53.072;6.582;2024-01-15T01:54:49;15.45;;;2.30;;
73456;SDS011;61691;53.072;6.582;2024-01-15T01:57:17;21.73;;;2.20;;
73456;SDS011;61691;53.072;6.582;2024-01-15T01:59:45;12.55;;;2.42;;
73456;SDS011;61691;53.072;6.582;2024-01-15T02:02:13;13.70;;;2.40;;
73456;SDS011;61691;53.072;6.582;2024-01-15T02:04:41;10.95;;;1.75;;
73456;SDS011;61691;53.072;6.582;2024-01-15T02:07:08;17.13;;;2.03;;
73456;SDS011;61691;53.072;6.582;2024-01-15T02:09:36;15.43;;;2.15;;
73456;SDS011;61691;53.072;6.582;2024-01-15T02:12:03;15.45;;;1.60;;
73456;SDS011;61691;53.072;6.582;2024-01-15T02:14:30;14.25;;;2.40;;
73456;SDS011;61691;53.072;6.582;2024-01-15T02:16:57;13.20;;;1.90;;
73456;SDS011;61691;53.072;6.582;2024-01-15T02:19:24;10.05;;;1.90;;
73456;SDS011;61691;53.072;6.582;2024-01-15T02:21:51;11.98;;;1.80;;
73456;SDS011;61691;53.072;6.582;2024-01-15T02:24:17;9.27;;;1.55;;
73456;SDS011;61691;53.072;6.582;2024-01-15T02:26:44;12.27;;;1.83;;
73456;SDS011;61691;53.072;6.582;2024-01-15T02:29:11;15.68;;;2.05;;
73456;SDS011;61691;53.072;6.582;2024-01-15T02:31:39;14.05;;;2.13;;
73456;SDS011;61691;53.072;6.582;2024-01-15T02:34:06;18.23;;;2.28;;
73456;SDS011;61691;53.072;6.582;2024-01-15T02:36:33;14.30;;;2.15;;
73456;SDS011;61691;53.072;6.582;2024-01-15T02:38:59;14.80;;;2.10;;
73456;SDS011;61691;53.072;6.582;2024-01-15T02:41:26;19.08;;;5.05;;
73456;SDS011;61691;53.072;6.582;2024-01-15T02:43:52;17.38;;;2.25;;
73456;SDS011;61691;53.072;6.582;2024-01-15T02:46:19;13.70;;;2.78;;
73456;SDS011;61691;53.072;6.582;2024-01-15T02:48:46;21.08;;;3.20;;
73456;SDS011;61691;53.072;6.582;2024-01-15T02:51:13;16.20;;;2.45;;
73456;SDS011;61691;53.072;6.582;2024-01-15T02:53:39;19.02;;;2.25;;
73456;SDS011;61691;53.072;6.582;2024-01-15T02:56:07;17.20;;;2.67;;
73456;SDS011;61691;53.072;6.582;2024-01-15T02:58:34;19.83;;;3.63;;
73456;SDS011;61691;53.072;6.582;2024-01-15T03:01:00;19.83;;;2.85;;
73456;SDS011;61691;53.072;6.582;2024-01-15T03:03:28;17.58;;;2.95;;
73456;SDS011;61691;53.072;6.582;2024-01-15T03:05:55;16.70;;;2.38;;
73456;SDS011;61691;53.072;6.582;2024-01-15T03:08:21;17.75;;;2.72;;
73456;SDS011;61691;53.072;6.582;2024-01-15T03:10:49;22.63;;;2.90;;
73456;SDS011;61691;53.072;6.582;2024-01-15T03:13:16;18.60;;;2.40;;
73456;SDS011;61691;53.072;6.582;2024-01-15T03:15:42;17.65;;;2.47;;
73456;SDS011;61691;53.072;6.582;2024-01-15T03:18:10;18.73;;;2.40;;
73456;SDS011;61691;53.072;6.582;2024-01-15T03:20:37;19.20;;;3.08;;
73456;SDS011;61691;53.072;6.582;2024-01-15T03:23:03;25.70;;;4.47;;
73456;SDS011;61691;53.072;6.582;2024-01-15T03:25:30;23.05;;;3.65;;
73456;SDS011;61691;53.072;6.582;2024-01-15T03:27:57;25.17;;;3.28;;
73456;SDS011;61691;53.072;6.582;2024-01-15T03:30:23;19.30;;;3.03;;
73456;SDS011;61691;53.072;6.582;2024-01-15T03:32:50;17.00;;;2.10;;
73456;SDS011;61691;53.072;6.582;2024-01-15T03:35:17;19.80;;;2.70;;
73456;SDS011;61691;53.072;6.582;2024-01-15T03:37:44;19.60;;;2.50;;
73456;SDS011;61691;53.072;6.582;2024-01-15T03:40:11;20.80;;;2.63;;
73456;SDS011;61691;53.072;6.582;2024-01-15T03:42:38;21.90;;;3.15;;
73456;SDS011;61691;53.072;6.582;2024-01-15T03:45:05;23.73;;;2.97;;
73456;SDS011;61691;53.072;6.582;2024-01-15T03:47:32;20.75;;;2.75;;
73456;SDS011;61691;53.072;6.582;2024-01-15T03:49:58;19.55;;;2.85;;
73456;SDS011;61691;53.072;6.582;2024-01-15T03:52:25;22.40;;;2.95;;
73456;SDS011;61691;53.072;6.582;2024-01-15T03:54:52;24.02;;;3.85;;
73456;SDS011;61691;53.072;6.582;2024-01-15T03:57:19;20.45;;;2.70;;
73456;SDS011;61691;53.072;6.582;2024-01-15T03:59:45;19.98;;;3.28;;
73456;SDS011;61691;53.072;6.582;2024-01-15T04:02:13;20.55;;;3.22;;
73456;SDS011;61691;53.072;6.582;2024-01-15T04:04:41;17.92;;;2.50;;
73456;SDS011;61691;53.072;6.582;2024-01-15T04:07:09;17.10;;;2.35;;
73456;SDS011;61691;53.072;6.582;2024-01-15T04:09:36;11.68;;;2.10;;
73456;SDS011;61691;53.072;6.582;2024-01-15T04:12:03;16.38;;;2.40;;
73456;SDS011;61691;53.072;6.582;2024-01-15T04:14:30;14.60;;;2.00;;
73456;SDS011;61691;53.072;6.582;2024-01-15T04:16:57;14.00;;;2.20;;
73456;SDS011;61691;53.072;6.582;2024-01-15T04:19:24;21.40;;;3.15;;
73456;SDS011;61691;53.072;6.582;2024-01-15T04:21:51;23.33;;;2.50;;
73456;SDS011;61691;53.072;6.582;2024-01-15T04:24:18;17.83;;;2.47;;
73456;SDS011;61691;53.072;6.582;2024-01-15T04:26:45;19.95;;;3.10;;
73456;SDS011;61691;53.072;6.582;2024-01-15T04:29:11;19.25;;;2.70;;
73456;SDS011;61691;53.072;6.582;2024-01-15T04:31:38;13.18;;;1.88;;
73456;SDS011;61691;53.072;6.582;2024-01-15T04:34:05;15.68;;;2.08;;
73456;SDS011;61691;53.072;6.582;2024-01-15T04:36:37;15.50;;;2.30;;
73456;SDS011;61691;53.072;6.582;2024-01-15T04:39:05;12.52;;;1.80;;
73456;SDS011;61691;53.072;6.582;2024-01-15T04:41:33;14.18;;;2.00;;
73456;SDS011;61691;53.072;6.582;2024-01-15T04:43:59;13.40;;;2.20;;
73456;SDS011;61691;53.072;6.582;2024-01-15T04:46:27;11.07;;;1.60;;
73456;SDS011;61691;53.072;6.582;2024-01-15T04:48:54;10.90;;;1.70;;
73456;SDS011;61691;53.072;6.582;2024-01-15T04:51:21;9.20;;;1.52;;
73456;SDS011;61691;53.072;6.582;2024-01-15T04:53:48;11.20;;;1.90;;
73456;SDS011;61691;53.072;6.582;2024-01-15T04:56:14;11.80;;;2.10;;
73456;SDS011;61691;53.072;6.582;2024-01-15T04:58:41;7.45;;;1.40;;
73456;SDS011;61691;53.072;6.582;2024-01-15T05:01:08;6.53;;;1.45;;
73456;SDS011;61691;53.072;6.582;2024-01-15T05:03:35;9.68;;;2.38;;
73456;SDS011;61691;53.072;6.582;2024-01-15T05:06:02;9.98;;;1.50;;
73456;SDS011;61691;53.072;6.582;2024-01-15T05:08:29;8.50;;;1.55;;
73456;SDS011;61691;53.072;6.582;2024-01-15T05:10:56;13.38;;;2.03;;
73456;SDS011;61691;53.072;6.582;2024-01-15T05:13:23;10.93;;;1.50;;
73456;SDS011;61691;53.072;6.582;2024-01-15T05:15:49;11.05;;;1.80;;
73456;SDS011;61691;53.072;6.582;2024-01-15T05:18:16;12.38;;;1.77;;
73456;SDS011;61691;53.072;6.582;2024-01-15T05:20:44;11.93;;;2.03;;
73456;SDS011;61691;53.072;6.582;2024-01-15T05:23:11;6.68;;;1.63;;
73456;SDS011;61691;53.072;6.582;2024-01-15T05:25:37;13.23;;;1.77;;
73456;SDS011;61691;53.072;6.582;2024-01-15T05:28:04;13.93;;;1.80;;
73456;SDS011;61691;53.072;6.582;2024-01-15T05:30:31;6.88;;;1.52;;
73456;SDS011;61691;53.072;6.582;2024-01-15T05:32:59;11.27;;;1.70;;
73456;SDS011;61691;53.072;6.582;2024-01-15T05:35:26;14.50;;;2.53;;
73456;SDS011;61691;53.072;6.582;2024-01-15T05:37:53;12.20;;;1.98;;
73456;SDS011;61691;53.072;6.582;2024-01-15T05:40:20;13.40;;;1.90;;
73456;SDS011;61691;53.072;6.582;2024-01-15T05:42:47;15.95;;;2.13;;
73456;SDS011;61691;53.072;6.582;2024-01-15T05:45:14;14.85;;;2.83;;
73456;SDS011;61691;53.072;6.582;2024-01-15T05:47:40;16.20;;;2.25;;
73456;SDS011;61691;53.072;6.582;2024-01-15T05:50:08;18.27;;;2.42;;
73456;SDS011;61691;53.072;6.582;2024-01-15T05:52:35;16.23;;;2.20;;
73456;SDS011;61691;53.072;6.582;2024-01-15T05:55:02;16.77;;;2.30;;
73456;SDS011;61691;53.072;6.582;2024-01-15T05:57:29;16.60;;;2.83;;
73456;SDS011;61691;53.072;6.582;2024-01-15T05:59:56;18.42;;;2.10;;
73456;SDS011;61691;53.072;6.582;2024-01-15T06:02:23;18.35;;;2.35;;
73456;SDS011;61691;53.072;6.582;2024-01-15T06:04:49;11.88;;;1.63;;
73456;SDS011;61691;53.072;6.582;2024-01-15T06:07:16;16.90;;;2.25;;
73456;SDS011;61691;53.072;6.582;2024-01-15T06:09:43;15.27;;;1.98;;
73456;SDS011;61691;53.072;6.582;2024-01-15T06:12:09;10.50;;;1.80;;
73456;SDS011;61691;53.072;6.582;2024-01-15T06:14:36;17.17;;;2.65;;
73456;SDS011;61691;53.072;6.582;2024-01-15T06:17:03;13.48;;;2.20;;
73456;SDS011;61691;53.072;6.582;2024-01-15T06:19:30;15.88;;;2.53;;
73456;SDS011;61691;53.072;6.582;2024-01-15T06:21:57;17.98;;;2.35;;
73456;SDS011;61691;53.072;6.582;2024-01-15T06:24:23;19.00;;;2.42;;
73456;SDS011;61691;53.072;6.582;2024-01-15T06:26:50;17.05;;;2.25;;
73456;SDS011;61691;53.072;6.582;2024-01-15T06:29:18;21.50;;;2.40;;
73456;SDS011;61691;53.072;6.582;2024-01-15T06:31:44;20.38;;;5.10;;
73456;SDS011;61691;53.072;6.582;2024-01-15T06:34:11;16.02;;;2.50;;
73456;SDS011;61691;53.072;6.582;2024-01-15T06:36:38;18.88;;;2.40;;
73456;SDS011;61691;53.072;6.582;2024-01-15T06:39:05;22.85;;;2.92;;
73456;SDS011;61691;53.072;6.582;2024-01-15T06:41:32;16.50;;;2.67;;
73456;SDS011;61691;53.072;6.582;2024-01-15T06:43:59;16.35;;;2.40;;
73456;SDS011;61691;53.072;6.582;2024-01-15T06:46:25;18.90;;;3.58;;
73456;SDS011;61691;53.072;6.582;2024-01-15T06:48:52;18.08;;;2.33;;
73456;SDS011;61691;53.072;6.582;2024-01-15T06:51:19;25.15;;;3.83;;
73456;SDS011;61691;53.072;6.582;2024-01-15T06:53:46;18.45;;;2.80;;
73456;SDS011;61691;53.072;6.582;2024-01-15T06:56:12;18.63;;;3.20;;
73456;SDS011;61691;53.072;6.582;2024-01-15T06:58:39;21.83;;;3.38;;
73456;SDS011;61691;53.072;6.582;2024-01-15T07:01:06;22.38;;;2.75;;
73456;SDS011;61691;53.072;6.582;2024-01-15T07:03:34;21.38;;;3.88;;
73456;SDS011;61691;53.072;6.582;2024-01-15T07:06:01;19.38;;;2.95;;
73456;SDS011;61691;53.072;6.582;2024-01-15T07:08:28;17.67;;;2.97;;
73456;SDS011;61691;53.072;6.582;2024-01-15T07:10:55;20.02;;;4.20;;
73456;SDS011;61691;53.072;6.582;2024-01-15T07:13:22;24.63;;;2.72;;
73456;SDS011;61691;53.072;6.582;2024-01-15T07:15:48;14.38;;;2.22;;
73456;SDS011;61691;53.072;6.582;2024-01-15T07:18:15;16.25;;;2.47;;
73456;SDS011;61691;53.072;6.582;2024-01-15T07:20:43;18.42;;;2.40;;
73456;SDS011;61691;53.072;6.582;2024-01-15T07:23:10;19.80;;;2.83;;
73456;SDS011;61691;53.072;6.582;2024-01-15T07:25:36;17.58;;;2.72;;
73456;SDS011;61691;53.072;6.582;2024-01-15T07:28:03;18.63;;;3.13;;
73456;SDS011;61691;53.072;6.582;2024-01-15T07:30:30;18.23;;;3.13;;
73456;SDS011;61691;53.072;6.582;2024-01-15T07:32:57;19.65;;;2.85;;
73456;SDS011;61691;53.072;6.582;2024-01-15T07:35:24;20.08;;;3.72;;
73456;SDS011;61691;53.072;6.582;2024-01-15T07:37:51;18.38;;;2.53;;
73456;SDS011;61691;53.072;6.582;2024-01-15T07:40:18;21.25;;;3.08;;
73456;SDS011;61691;53.072;6.582;2024-01-15T07:42:45;15.15;;;2.25;;
73456;SDS011;61691;53.072;6.582;2024-01-15T07:45:12;22.02;;;3.20;;
73456;SDS011;61691;53.072;6.582;2024-01-15T07:47:38;15.73;;;2.40;;
73456;SDS011;61691;53.072;6.582;2024-01-15T07:50:05;16.15;;;2.42;;
73456;SDS011;61691;53.072;6.582;2024-01-15T07:52:33;18.20;;;2.33;;
73456;SDS011;61691;53.072;6.582;2024-01-15T07:54:59;16.08;;;2.33;;
73456;SDS011;61691;53.072;6.582;2024-01-15T07:57:27;22.02;;;2.92;;
73456;SDS011;61691;53.072;6.582;2024-01-15T07:59:54;20.05;;;3.97;;
73456;SDS011;61691;53.072;6.582;2024-01-15T08:02:20;16.92;;;2.15;;
73456;SDS011;61691;53.072;6.582;2024-01-15T08:04:48;18.70;;;2.58;;
73456;SDS011;61691;53.072;6.582;2024-01-15T08:07:15;19.92;;;2.50;;
73456;SDS011;61691;53.072;6.582;2024-01-15T08:09:42;17.55;;;2.40;;
73456;SDS011;61691;53.072;6.582;2024-01-15T08:12:09;16.45;;;2.53;;
73456;SDS011;61691;53.072;6.582;2024-01-15T08:14:36;18.38;;;2.35;;
73456;SDS011;61691;53.072;6.582;2024-01-15T08:17:03;19.90;;;2.28;;
73456;SDS011;61691;53.072;6.582;2024-01-15T08:19:30;15.15;;;2.10;;
73456;SDS011;61691;53.072;6.582;2024-01-15T08:21:58;16.25;;;2.20;;
73456;SDS011;61691;53.072;6.582;2024-01-15T08:24:24;15.65;;;2.33;;
73456;SDS011;61691;53.072;6.582;2024-01-15T08:26:51;10.52;;;2.13;;
73456;SDS011;61691;53.072;6.582;2024-01-15T08:29:18;12.48;;;1.90;;
73456;SDS011;61691;53.072;6.582;2024-01-15T08:31:47;12.45;;;2.60;;
73456;SDS011;61691;53.072;6.582;2024-01-15T08:34:14;13.93;;;1.90;;
73456;SDS011;61691;53.072;6.582;2024-01-15T08:36:41;12.45;;;1.88;;
73456;SDS011;61691;53.072;6.582;2024-01-15T08:39:08;14.75;;;2.08;;
73456;SDS011;61691;53.072;6.582;2024-01-15T08:41:35;15.88;;;1.83;;
73456;SDS011;61691;53.072;6.582;2024-01-15T08:44:02;14.07;;;2.35;;
73456;SDS011;61691;53.072;6.582;2024-01-15T08:46:29;17.00;;;2.03;;
73456;SDS011;61691;53.072;6.582;2024-01-15T08:48:56;14.52;;;2.05;;
73456;SDS011;61691;53.072;6.582;2024-01-15T08:51:23;13.63;;;1.77;;
73456;SDS011;61691;53.072;6.582;2024-01-15T08:53:50;12.32;;;1.92;;
73456;SDS011;61691;53.072;6.582;2024-01-15T08:56:17;17.17;;;2.60;;
73456;SDS011;61691;53.072;6.582;2024-01-15T08:58:43;13.75;;;2.22;;
73456;SDS011;61691;53.072;6.582;2024-01-15T09:01:12;10.63;;;1.90;;
73456;SDS011;61691;53.072;6.582;2024-01-15T09:03:40;12.88;;;2.20;;
73456;SDS011;61691;53.072;6.582;2024-01-15T09:06:09;10.18;;;2.20;;
73456;SDS011;61691;53.072;6.582;2024-01-15T09:08:37;15.00;;;2.20;;
73456;SDS011;61691;53.072;6.582;2024-01-15T09:11:03;12.55;;;2.08;;
73456;SDS011;61691;53.072;6.582;2024-01-15T09:13:30;11.10;;;1.80;;
73456;SDS011;61691;53.072;6.582;2024-01-15T09:15:58;15.27;;;1.95;;
73456;SDS011;61691;53.072;6.582;2024-01-15T09:18:25;12.02;;;1.70;;
73456;SDS011;61691;53.072;6.582;2024-01-15T09:20:52;8.23;;;1.45;;
73456;SDS011;61691;53.072;6.582;2024-01-15T09:23:19;8.43;;;1.48;;
73456;SDS011;61691;53.072;6.582;2024-01-15T09:25:46;13.77;;;1.70;;
73456;SDS011;61691;53.072;6.582;2024-01-15T09:28:14;10.25;;;1.80;;
73456;SDS011;61691;53.072;6.582;2024-01-15T09:30:41;11.88;;;1.83;;
73456;SDS011;61691;53.072;6.582;2024-01-15T09:33:08;11.55;;;2.15;;
73456;SDS011;61691;53.072;6.582;2024-01-15T09:35:35;7.20;;;1.40;;
73456;SDS011;61691;53.072;6.582;2024-01-15T09:38:02;5.47;;;1.40;;
73456;SDS011;61691;53.072;6.582;2024-01-15T09:40:31;8.48;;;1.83;;
73456;SDS011;61691;53.072;6.582;2024-01-15T09:42:59;6.80;;;1.48;;
73456;SDS011;61691;53.072;6.582;2024-01-15T09:45:27;10.98;;;1.90;;
73456;SDS011;61691;53.072;6.582;2024-01-15T09:47:55;13.57;;;2.17;;
73456;SDS011;61691;53.072;6.582;2024-01-15T09:50:22;13.45;;;2.15;;
73456;SDS011;61691;53.072;6.582;2024-01-15T09:52:49;11.27;;;2.00;;
73456;SDS011;61691;53.072;6.582;2024-01-15T09:55:17;13.48;;;2.35;;
73456;SDS011;61691;53.072;6.582;2024-01-15T09:57:44;12.38;;;1.90;;
73456;SDS011;61691;53.072;6.582;2024-01-15T10:00:12;13.73;;;2.47;;
73456;SDS011;61691;53.072;6.582;2024-01-15T10:02:41;16.02;;;2.20;;
73456;SDS011;61691;53.072;6.582;2024-01-15T10:05:07;14.75;;;2.20;;
73456;SDS011;61691;53.072;6.582;2024-01-15T10:07:35;15.38;;;2.30;;
73456;SDS011;61691;53.072;6.582;2024-01-15T10:10:03;19.17;;;3.28;;
73456;SDS011;61691;53.072;6.582;2024-01-15T10:12:31;17.95;;;2.60;;
73456;SDS011;61691;53.072;6.582;2024-01-15T10:14:58;14.38;;;2.00;;
73456;SDS011;61691;53.072;6.582;2024-01-15T10:17:25;19.95;;;3.28;;
73456;SDS011;61691;53.072;6.582;2024-01-15T10:19:54;18.20;;;2.33;;
73456;SDS011;61691;53.072;6.582;2024-01-15T10:22:21;10.93;;;2.00;;
73456;SDS011;61691;53.072;6.582;2024-01-15T10:24:49;20.83;;;3.78;;
73456;SDS011;61691;53.072;6.582;2024-01-15T10:27:16;16.30;;;3.20;;
73456;SDS011;61691;53.072;6.582;2024-01-15T10:29:43;15.32;;;2.67;;
73456;SDS011;61691;53.072;6.582;2024-01-15T10:32:11;13.63;;;2.78;;
73456;SDS011;61691;53.072;6.582;2024-01-15T10:34:38;16.67;;;3.20;;
73456;SDS011;61691;53.072;6.582;2024-01-15T10:37:07;17.52;;;2.30;;
73456;SDS011;61691;53.072;6.582;2024-01-15T10:39:35;16.00;;;2.28;;
73456;SDS011;61691;53.072;6.582;2024-01-15T10:42:03;14.25;;;2.33;;
73456;SDS011;61691;53.072;6.582;2024-01-15T10:44:30;13.77;;;2.00;;
73456;SDS011;61691;53.072;6.582;2024-01-15T10:46:58;14.93;;;2.30;;
73456;SDS011;61691;53.072;6.582;2024-01-15T10:49:24;19.23;;;2.83;;
73456;SDS011;61691;53.072;6.582;2024-01-15T10:51:59;18.30;;;2.50;;
73456;SDS011;61691;53.072;6.582;2024-01-15T10:54:27;17.95;;;2.35;;
73456;SDS011;61691;53.072;6.582;2024-01-15T10:56:56;15.43;;;2.17;;
73456;SDS011;61691;53.072;6.582;2024-01-15T10:59:23;15.68;;;2.10;;
73456;SDS011;61691;53.072;6.582;2024-01-15T11:01:50;14.13;;;2.03;;
73456;SDS011;61691;53.072;6.582;2024-01-15T11:04:21;12.80;;;2.50;;
73456;SDS011;61691;53.072;6.582;2024-01-15T11:06:51;9.63;;;2.00;;
73456;SDS011;61691;53.072;6.582;2024-01-15T11:09:22;10.50;;;1.98;;
73456;SDS011;61691;53.072;6.582;2024-01-15T11:11:52;7.85;;;1.70;;
73456;SDS011;61691;53.072;6.582;2024-01-15T11:14:38;8.20;;;1.65;;
73456;SDS011;61691;53.072;6.582;2024-01-15T11:17:06;9.55;;;1.50;;
73456;SDS011;61691;53.072;6.582;2024-01-15T11:19:46;13.30;;;3.65;;
73456;SDS011;61691;53.072;6.582;2024-01-15T11:25:34;6.50;;;1.50;;
73456;SDS011;61691;53.072;6.582;2024-01-15T11:27:50;10.23;;;1.40;;
73456;SDS011;61691;53.072;6.582;2024-01-15T11:30:20;2.55;;;1.20;;
73456;SDS011;61691;53.072;6.582;2024-01-15T11:32:52;8.23;;;1.50;;
73456;SDS011;61691;53.072;6.582;2024-01-15T11:35:19;4.95;;;1.40;;
73456;SDS011;61691;53.072;6.582;2024-01-15T11:40:22;7.22;;;1.63;;
73456;SDS011;61691;53.072;6.582;2024-01-15T11:43:05;10.25;;;1.60;;
73456;SDS011;61691;53.072;6.582;2024-01-15T11:45:36;7.97;;;1.65;;
73456;SDS011;61691;53.072;6.582;2024-01-15T11:50:42;4.93;;;1.35;;
73456;SDS011;61691;53.072;6.582;2024-01-15T11:53:15;8.13;;;1.50;;
73456;SDS011;61691;53.072;6.582;2024-01-15T11:55:45;7.47;;;1.40;;
73456;SDS011;61691;53.072;6.582;2024-01-15T11:58:12;7.25;;;1.50;;
73456;SDS011;61691;53.072;6.582;2024-01-15T12:00:43;9.25;;;1.52;;
73456;SDS011;61691;53.072;6.582;2024-01-15T12:03:12;9.98;;;1.52;;
73456;SDS011;61691;53.072;6.582;2024-01-15T12:05:39;7.30;;;1.55;;
73456;SDS011;61691;53.072;6.582;2024-01-15T12:08:07;6.28;;;1.65;;
73456;SDS011;61691;53.072;6.582;2024-01-15T12:10:38;8.13;;;2.15;;
73456;SDS011;61691;53.072;6.582;2024-01-15T12:13:11;9.38;;;1.77;;
73456;SDS011;61691;53.072;6.582;2024-01-15T12:15:43;6.25;;;1.70;;
73456;SDS011;61691;53.072;6.582;2024-01-15T12:18:13;9.02;;;1.75;;
73456;SDS011;61691;53.072;6.582;2024-01-15T12:20:45;8.05;;;1.55;;
73456;SDS011;61691;53.072;6.582;2024-01-15T12:23:15;9.90;;;1.80;;
73456;SDS011;61691;53.072;6.582;2024-01-15T12:25:43;12.55;;;1.70;;
73456;SDS011;61691;53.072;6.582;2024-01-15T12:28:10;9.48;;;1.60;;
73456;SDS011;61691;53.072;6.582;2024-01-15T12:30:38;5.55;;;1.70;;
73456;SDS011;61691;53.072;6.582;2024-01-15T12:33:07;11.75;;;2.17;;
73456;SDS011;61691;53.072;6.582;2024-01-15T12:35:36;10.77;;;2.28;;
73456;SDS011;61691;53.072;6.582;2024-01-15T12:38:03;12.85;;;2.40;;
73456;SDS011;61691;53.072;6.582;2024-01-15T12:40:31;14.98;;;2.10;;
73456;SDS011;61691;53.072;6.582;2024-01-15T12:43:03;13.73;;;3.08;;
73456;SDS011;61691;53.072;6.582;2024-01-15T12:45:33;6.72;;;1.98;;
73456;SDS011;61691;53.072;6.582;2024-01-15T12:48:02;13.00;;;2.20;;
73456;SDS011;61691;53.072;6.582;2024-01-15T12:50:30;14.65;;;2.50;;
73456;SDS011;61691;53.072;6.582;2024-01-15T12:52:59;12.68;;;2.38;;
73456;SDS011;61691;53.072;6.582;2024-01-15T12:55:26;15.43;;;2.40;;
73456;SDS011;61691;53.072;6.582;2024-01-15T12:57:53;17.13;;;2.97;;
73456;SDS011;61691;53.072;6.582;2024-01-15T13:00:21;17.77;;;2.78;;
73456;SDS011;61691;53.072;6.582;2024-01-15T13:02:48;14.77;;;2.88;;
73456;SDS011;61691;53.072;6.582;2024-01-15T13:05:16;11.57;;;1.95;;
73456;SDS011;61691;53.072;6.582;2024-01-15T13:07:44;14.02;;;2.20;;
73456;SDS011;61691;53.072;6.582;2024-01-15T13:10:10;11.90;;;2.08;;
73456;SDS011;61691;53.072;6.582;2024-01-15T13:12:39;15.45;;;2.17;;
73456;SDS011;61691;53.072;6.582;2024-01-15T13:15:07;17.00;;;2.50;;
73456;SDS011;61691;53.072;6.582;2024-01-15T13:17:40;17.30;;;2.67;;
73456;SDS011;61691;53.072;6.582;2024-01-15T13:20:08;13.35;;;2.30;;
73456;SDS011;61691;53.072;6.582;2024-01-15T13:22:38;15.45;;;2.97;;
73456;SDS011;61691;53.072;6.582;2024-01-15T13:25:06;17.48;;;2.63;;
73456;SDS011;61691;53.072;6.582;2024-01-15T13:27:35;17.08;;;2.53;;
73456;SDS011;61691;53.072;6.582;2024-01-15T13:30:03;12.40;;;1.95;;
73456;SDS011;61691;53.072;6.582;2024-01-15T13:32:31;13.93;;;2.17;;
73456;SDS011;61691;53.072;6.582;2024-01-15T13:34:59;9.30;;;1.65;;
73456;SDS011;61691;53.072;6.582;2024-01-15T13:37:26;13.55;;;1.85;;
73456;SDS011;61691;53.072;6.582;2024-01-15T13:39:54;11.63;;;2.08;;
73456;SDS011;61691;53.072;6.582;2024-01-15T13:42:21;9.57;;;1.75;;
73456;SDS011;61691;53.072;6.582;2024-01-15T13:44:49;10.50;;;1.70;;
73456;SDS011;61691;53.072;6.582;2024-01-15T13:47:15;10.55;;;1.63;;
73456;SDS011;61691;53.072;6.582;2024-01-15T13:49:42;14.32;;;2.08;;
73456;SDS011;61691;53.072;6.582;2024-01-15T13:52:09;13.25;;;2.22;;
73456;SDS011;61691;53.072;6.582;2024-01-15T13:54:36;12.65;;;2.00;;
73456;SDS011;61691;53.072;6.582;2024-01-15T13:57:15;14.15;;;2.20;;
73456;SDS011;61691;53.072;6.582;2024-01-15T13:59:43;16.92;;;2.45;;
73456;SDS011;61691;53.072;6.582;2024-01-15T14:02:10;12.00;;;1.90;;
73456;SDS011;61691;53.072;6.582;2024-01-15T14:04:37;15.45;;;3.10;;
73456;SDS011;61691;53.072;6.582;2024-01-15T14:07:04;18.60;;;3.00;;
73456;SDS011;61691;53.072;6.582;2024-01-15T14:09:31;12.23;;;2.35;;
73456;SDS011;61691;53.072;6.582;2024-01-15T14:11:59;15.02;;;2.50;;
73456;SDS011;61691;53.072;6.582;2024-01-15T14:14:26;14.55;;;2.30;;
73456;SDS011;61691;53.072;6.582;2024-01-15T14:16:53;17.65;;;2.33;;
73456;SDS011;61691;53.072;6.582;2024-01-15T14:19:19;15.02;;;2.30;;
73456;SDS011;61691;53.072;6.582;2024-01-15T14:21:47;17.15;;;2.28;;
73456;SDS011;61691;53.072;6.582;2024-01-15T14:24:17;17.20;;;2.47;;
73456;SDS011;61691;53.072;6.582;2024-01-15T14:26:45;13.85;;;1.90;;
73456;SDS011;61691;53.072;6.582;2024-01-15T14:29:12;17.75;;;3.03;;
73456;SDS011;61691;53.072;6.582;2024-01-15T14:31:39;20.45;;;2.50;;
73456;SDS011;61691;53.072;6.582;2024-01-15T14:34:06;15.75;;;3.33;;
73456;SDS011;61691;53.072;6.582;2024-01-15T14:36:34;17.92;;;2.35;;
73456;SDS011;61691;53.072;6.582;2024-01-15T14:39:01;16.63;;;2.30;;
73456;SDS011;61691;53.072;6.582;2024-01-15T14:41:28;15.90;;;2.50;;
73456;SDS011;61691;53.072;6.582;2024-01-15T14:43:56;18.35;;;2.45;;
73456;SDS011;61691;53.072;6.582;2024-01-15T14:46:24;17.20;;;2.55;;